»·PEaware :: N2193G KDEN-KAPA

N2193G :: KDEN-KAPA

FLIGHT INFORMATION

Flight Status: Arrived
Operator: Privately registered:
United States
More flights under this callsign
Pilot: Horacio G. (12762)
Aircraft: MOONEY M-20K/M ENCORE BRAVO
(M20T)
More flights by this aircraft type
Origin: KDEN Denver Intl
United States
Destination: KAPA Centennial
United States
More flights between these airports :: More routes between these airports
Route: DENVER1 FQF
File this flight plan on PilotEdge
Remarks: RV RNAV 35R
Altitude:
(Current/Filed)
10,000ft
Speed:
(Current/Filed)
167kts
Departed: 11-Jan-19 05:10 PM
Arrived: 11-Jan-19 05:45 PM
Distance/Time
Traveled:
19nm/0:35
Distance/Time
To Go:
Arrived

Flight Plot

Page will automatically refresh every two minutes.

Flight plan parsing failed; only flown route is shown


Map Options




Map Legend


Flown Route
Filed Route
Departure Airport
Arrival Airport
Navaid (VOR, NDB)
Fix

Horizontal Profiles

Position Reports

Time Latitude Longitude Heading Altitude Ground
Speed
11-Jan-19 16:54 39.839365 -104.665157 39 5397ft 0kts
11-Jan-19 16:55 39.839365 -104.665157 39 5397ft 0kts
11-Jan-19 16:56 39.839365 -104.665157 39 5397ft 0kts
11-Jan-19 16:57 39.839365 -104.665157 39 5397ft 0kts
11-Jan-19 16:58 39.839365 -104.665157 39 5397ft 0kts
11-Jan-19 16:59 39.839365 -104.665157 39 5397ft 0kts
11-Jan-19 17:00 39.839365 -104.665157 39 5397ft 0kts
11-Jan-19 17:01 39.839365 -104.665157 39 5397ft 0kts
11-Jan-19 17:02 39.839365 -104.665157 39 5397ft 0kts
11-Jan-19 17:03 39.839365 -104.665157 39 5397ft 0kts
11-Jan-19 17:04 39.839365 -104.665157 39 5397ft 0kts
11-Jan-19 17:05 39.839536 -104.664975 41 5398ft 10kts
11-Jan-19 17:06 39.836529 -104.662590 177 5403ft 26kts
11-Jan-19 17:07 39.828918 -104.662646 171 5416ft 14kts
11-Jan-19 17:08 39.828558 -104.660574 11 5419ft 10kts
11-Jan-19 17:09 39.851092 -104.660065 3 6421ft 115kts
11-Jan-19 17:10 39.883989 -104.658808 0 8035ft 132kts
11-Jan-19 17:11 39.929565 -104.660779 359 8008ft 177kts
11-Jan-19 17:12 39.979247 -104.661705 2 7992ft 180kts
11-Jan-19 17:13 40.029130 -104.663738 356 7997ft 179kts
11-Jan-19 17:14 40.078969 -104.666387 356 8001ft 179kts
11-Jan-19 17:15 40.128555 -104.671418 355 8011ft 178kts
11-Jan-19 17:16 40.162553 -104.638605 96 8040ft 180kts
11-Jan-19 17:17 40.119757 -104.626591 179 8038ft 183kts
11-Jan-19 17:18 40.069460 -104.626078 174 8055ft 181kts
11-Jan-19 17:19 40.018390 -104.624353 179 8023ft 184kts
11-Jan-19 17:20 39.966947 -104.623546 180 7986ft 185kts
11-Jan-19 17:21 39.915878 -104.623578 178 8011ft 183kts
11-Jan-19 17:22 39.864863 -104.623635 180 7994ft 184kts
11-Jan-19 17:23 39.813809 -104.622213 178 7984ft 185kts
11-Jan-19 17:24 39.762627 -104.621196 178 7990ft 184kts
11-Jan-19 17:25 39.711672 -104.621097 180 8004ft 183kts
11-Jan-19 17:26 39.660919 -104.626638 188 7998ft 184kts
11-Jan-19 17:27 39.610417 -104.636438 189 7987ft 184kts
11-Jan-19 17:28 39.561141 -104.645886 190 8587ft 157kts
11-Jan-19 17:29 39.515634 -104.655659 180 9023ft 181kts
11-Jan-19 17:30 39.464455 -104.653677 178 9006ft 185kts
11-Jan-19 17:31 39.413252 -104.650967 175 9030ft 185kts
11-Jan-19 17:32 39.361537 -104.648146 178 8996ft 186kts
11-Jan-19 17:33 39.310007 -104.646920 184 9031ft 184kts
11-Jan-19 17:34 39.279880 -104.694639 261 9032ft 184kts
11-Jan-19 17:35 39.296855 -104.751731 311 8996ft 182kts
11-Jan-19 17:36 39.326813 -104.804678 302 8995ft 184kts
11-Jan-19 17:37 39.363949 -104.842556 4 9065ft 179kts
11-Jan-19 17:38 39.405298 -104.842589 358 8946ft 126kts
11-Jan-19 17:39 39.440793 -104.844522 358 8378ft 130kts
11-Jan-19 17:40 39.475448 -104.846126 354 7493ft 114kts
11-Jan-19 17:41 39.505515 -104.847890 358 6997ft 108kts
11-Jan-19 17:42 39.534979 -104.849356 3 6323ft 94kts
11-Jan-19 17:43 39.560382 -104.850380 358 5865ft 76kts
11-Jan-19 17:44 39.567832 -104.849444 29 5840ft 0kts
11-Jan-19 17:45 39.567925 -104.849383 22 5840ft 4kts
11-Jan-19 17:46 39.574196 -104.848831 30 5818ft 21kts

Navigation Log

Ident Type
Flight plan parsing failed, navigation log unavailable